createdAt,value
2023-04-13T00:00:16.571Z,0.60
2023-04-13T00:02:47.037Z,0.70
2023-04-13T00:05:17.042Z,0.60
2023-04-13T00:07:45.063Z,0.53
2023-04-13T00:10:13.211Z,0.60
2023-04-13T00:12:43.020Z,0.70
2023-04-13T00:15:11.229Z,0.50
2023-04-13T00:17:39.380Z,0.50
2023-04-13T00:20:12.152Z,0.50
2023-04-13T00:22:42.212Z,0.60
2023-04-13T00:25:11.689Z,0.50
2023-04-13T00:27:40.191Z,0.50
2023-04-13T00:30:09.903Z,0.50
2023-04-13T00:32:38.875Z,0.80
2023-04-13T00:35:08.600Z,0.40
2023-04-13T00:37:37.232Z,0.70
2023-04-13T00:40:08.992Z,0.50
2023-04-13T00:42:39.197Z,0.50
2023-04-13T00:45:09.581Z,0.50
2023-04-13T00:47:37.956Z,0.57
2023-04-13T00:50:07.721Z,0.60
2023-04-13T00:52:38.342Z,0.67
2023-04-13T00:55:09.293Z,0.60
2023-04-13T00:57:40.296Z,0.50
2023-04-13T01:00:10.304Z,0.50
2023-04-13T01:02:42.583Z,0.43
2023-04-13T01:05:15.571Z,0.57
2023-04-13T01:07:55.513Z,0.67
2023-04-13T01:10:29.768Z,0.50
2023-04-13T01:13:11.416Z,0.40
2023-04-13T01:15:52.516Z,0.60
2023-04-13T01:18:22.719Z,0.50
2023-04-13T01:20:54.836Z,0.50
2023-04-13T01:23:39.084Z,0.50
2023-04-13T01:26:09.054Z,0.50
2023-04-13T01:28:40.855Z,0.50
2023-04-13T01:31:12.490Z,0.80
2023-04-13T01:33:41.779Z,0.60
2023-04-13T01:36:12.605Z,0.60
2023-04-13T01:38:44.556Z,0.50
2023-04-13T01:41:13.937Z,0.70
2023-04-13T01:43:47.224Z,0.50
2023-04-13T01:46:20.079Z,0.53
2023-04-13T01:49:01.846Z,0.57
2023-04-13T01:51:45.340Z,0.40
2023-04-13T01:54:21.366Z,0.60
2023-04-13T01:56:50.221Z,0.60
2023-04-13T01:59:22.500Z,0.60
2023-04-13T02:01:50.714Z,0.50
2023-04-13T02:04:18.898Z,0.53
2023-04-13T02:06:48.268Z,0.60
2023-04-13T02:09:16.229Z,0.50
2023-04-13T02:11:44.353Z,0.50
2023-04-13T02:14:12.223Z,0.73
2023-04-13T02:16:41.908Z,0.47
2023-04-13T02:19:10.676Z,0.50
2023-04-13T02:21:38.540Z,0.50
2023-04-13T02:24:08.141Z,0.60
2023-04-13T02:26:37.668Z,0.50
2023-04-13T02:29:05.681Z,0.50
2023-04-13T02:31:33.779Z,0.60
2023-04-13T02:34:06.316Z,0.50
2023-04-13T02:36:34.763Z,0.63
2023-04-13T02:39:09.137Z,0.50
2023-04-13T02:41:37.199Z,0.50
2023-04-13T02:44:05.071Z,0.40
2023-04-13T02:46:43.335Z,1.00
2023-04-13T02:49:17.474Z,0.40
2023-04-13T02:51:57.642Z,0.70
2023-04-13T02:54:43.263Z,0.50
2023-04-13T02:57:13.344Z,0.70
2023-04-13T02:59:42.480Z,0.70
2023-04-13T03:02:12.710Z,0.60
2023-04-13T03:04:43.245Z,0.50
2023-04-13T03:07:14.408Z,0.57
2023-04-13T03:09:47.335Z,0.60
2023-04-13T03:12:17.089Z,0.40
2023-04-13T03:14:47.525Z,0.50
2023-04-13T03:17:18.529Z,0.50
2023-04-13T03:19:50.871Z,0.40
2023-04-13T03:22:21.321Z,0.60
2023-04-13T03:24:50.149Z,0.40
2023-04-13T03:27:25.101Z,0.53
2023-04-13T03:29:55.937Z,0.70
2023-04-13T03:32:24.139Z,0.60
2023-04-13T03:35:00.603Z,0.67
2023-04-13T03:37:32.461Z,0.60
2023-04-13T03:40:12.072Z,0.60
2023-04-13T03:42:48.945Z,0.60
2023-04-13T03:45:17.404Z,0.80
2023-04-13T03:47:45.918Z,0.73
2023-04-13T03:50:15.838Z,0.63
2023-04-13T03:52:44.083Z,0.77
2023-04-13T03:55:12.039Z,0.77
2023-04-13T03:57:41.610Z,0.70
2023-04-13T04:00:16.518Z,0.70
2023-04-13T04:03:09.626Z,0.63
2023-04-13T04:05:50.571Z,0.87
2023-04-13T04:08:18.836Z,0.70
2023-04-13T04:10:49.375Z,0.60
2023-04-13T04:13:18.864Z,0.80
2023-04-13T04:15:51.103Z,0.57
2023-04-13T04:18:19.034Z,0.60
2023-04-13T04:20:47.589Z,0.77
2023-04-13T04:23:19.784Z,0.60
2023-04-13T04:25:59.374Z,0.50
2023-04-13T04:28:38.344Z,0.57
2023-04-13T04:31:10.415Z,0.87
2023-04-13T04:33:39.876Z,0.63
2023-04-13T04:36:14.068Z,0.73
2023-04-13T04:38:58.254Z,0.63
2023-04-13T04:41:31.477Z,0.90
2023-04-13T04:44:08.102Z,0.70
2023-04-13T04:46:41.687Z,0.70
2023-04-13T04:49:13.312Z,0.97
2023-04-13T04:51:41.971Z,0.60
2023-04-13T04:54:14.295Z,0.77
2023-04-13T04:56:42.662Z,1.20
2023-04-13T04:59:10.603Z,0.90
2023-04-13T05:01:50.027Z,0.80
2023-04-13T05:04:18.109Z,0.70
2023-04-13T05:06:47.182Z,0.70
2023-04-13T05:09:20.629Z,1.10
2023-04-13T05:11:52.469Z,0.70
2023-04-13T05:14:23.598Z,1.03
2023-04-13T05:16:52.599Z,0.70
2023-04-13T05:19:31.117Z,1.10
2023-04-13T05:22:22.163Z,1.07
2023-04-13T05:25:01.145Z,0.97
2023-04-13T05:27:31.590Z,0.90
2023-04-13T05:29:59.666Z,1.00
2023-04-13T05:32:28.176Z,0.90
2023-04-13T05:35:01.034Z,0.80
2023-04-13T05:37:29.793Z,0.90
2023-04-13T05:39:57.652Z,0.80
2023-04-13T05:42:34.289Z,0.70
2023-04-13T05:45:04.094Z,1.00
2023-04-13T05:47:35.166Z,0.93
2023-04-13T05:50:13.003Z,0.83
2023-04-13T05:52:42.590Z,0.70
2023-04-13T05:55:11.702Z,0.90
2023-04-13T05:57:45.629Z,1.50
2023-04-13T06:00:19.256Z,1.00
2023-04-13T06:02:59.498Z,1.10
2023-04-13T06:05:28.967Z,1.67
2023-04-13T06:08:02.766Z,1.27
2023-04-13T06:10:39.836Z,1.00
2023-04-13T06:13:42.628Z,1.20
2023-04-13T06:16:55.851Z,1.30
2023-04-13T06:19:46.600Z,1.77
2023-04-13T06:22:18.117Z,0.90
2023-04-13T06:25:06.441Z,1.27
2023-04-13T06:27:37.486Z,1.20
2023-04-13T06:30:15.933Z,0.97
2023-04-13T06:32:48.599Z,1.30
2023-04-13T06:35:20.734Z,1.00
2023-04-13T06:37:52.397Z,1.00
2023-04-13T06:40:28.580Z,1.20
2023-04-13T06:43:26.283Z,0.80
2023-04-13T06:46:42.016Z,1.00
2023-04-13T06:49:15.223Z,1.10
2023-04-13T06:51:44.703Z,0.90
2023-04-13T06:54:12.715Z,0.90
2023-04-13T06:56:47.031Z,1.07
2023-04-13T06:59:20.124Z,0.90
2023-04-13T07:01:54.853Z,1.57
2023-04-13T07:04:26.531Z,1.10
2023-04-13T07:06:59.848Z,1.50
2023-04-13T07:09:30.067Z,1.10
2023-04-13T07:11:59.378Z,1.00
2023-04-13T07:14:28.894Z,0.90
2023-04-13T07:17:00.475Z,1.30
2023-04-13T07:19:31.677Z,1.10
2023-04-13T07:22:01.104Z,0.70
2023-04-13T07:24:31.433Z,1.10
2023-04-13T07:27:01.937Z,1.10
2023-04-13T07:29:29.943Z,1.10
2023-04-13T07:32:06.699Z,1.37
2023-04-13T07:34:37.992Z,0.87
2023-04-13T07:37:06.030Z,1.20
2023-04-13T07:39:34.332Z,1.10
2023-04-13T07:42:03.093Z,1.10
2023-04-13T07:44:39.963Z,1.10
2023-04-13T07:47:14.161Z,1.43
2023-04-13T07:49:44.382Z,1.10
2023-04-13T07:52:16.864Z,1.50
2023-04-13T07:54:46.800Z,0.90
2023-04-13T07:57:18.618Z,1.13
2023-04-13T08:00:06.978Z,1.80
2023-04-13T08:02:49.661Z,1.00
2023-04-13T08:05:25.274Z,0.90
2023-04-13T08:08:01.249Z,1.10
2023-04-13T08:10:48.537Z,1.10
2023-04-13T08:13:19.832Z,1.00
2023-04-13T08:15:59.600Z,1.23
2023-04-13T08:18:59.973Z,0.93
2023-04-13T08:21:53.114Z,0.93
2023-04-13T08:24:21.737Z,1.27
2023-04-13T08:26:52.381Z,1.27
2023-04-13T08:29:25.543Z,1.20
2023-04-13T08:31:58.153Z,1.20
2023-04-13T08:34:30.557Z,1.30
2023-04-13T08:37:00.591Z,1.47
2023-04-13T08:39:34.620Z,1.20
2023-04-13T08:42:04.256Z,1.50
2023-04-13T08:44:43.068Z,1.20
2023-04-13T08:47:11.910Z,1.23
2023-04-13T08:49:43.874Z,1.20
2023-04-13T08:52:31.969Z,1.20
2023-04-13T08:55:02.275Z,1.10
2023-04-13T08:57:34.382Z,1.20
2023-04-13T09:00:06.466Z,1.40
2023-04-13T09:02:52.478Z,1.17
2023-04-13T09:05:40.714Z,1.50
2023-04-13T09:08:13.767Z,1.60
2023-04-13T09:10:46.369Z,1.50
2023-04-13T09:13:19.526Z,1.13
2023-04-13T09:15:49.451Z,1.03
2023-04-13T09:18:51.548Z,0.90
2023-04-13T09:21:21.866Z,1.00
2023-04-13T09:23:58.853Z,1.07
2023-04-13T09:26:29.335Z,1.20
2023-04-13T09:28:58.744Z,1.30
2023-04-13T09:31:28.746Z,1.03
2023-04-13T09:33:58.207Z,1.00
2023-04-13T09:36:29.654Z,1.47
2023-04-13T09:38:58.591Z,1.00
2023-04-13T09:41:36.442Z,1.20
2023-04-13T09:44:18.171Z,1.33
2023-04-13T09:46:46.444Z,0.83
2023-04-13T09:49:15.874Z,1.30
2023-04-13T09:51:46.058Z,0.93
2023-04-13T09:54:14.222Z,1.13
2023-04-13T09:56:48.744Z,1.00
2023-04-13T09:59:19.938Z,1.03
2023-04-13T10:01:50.167Z,1.60
2023-04-13T10:04:19.826Z,1.57
2023-04-13T10:06:50.515Z,1.20
2023-04-13T10:09:21.239Z,1.07
2023-04-13T10:11:52.532Z,1.20
2023-04-13T10:14:26.407Z,1.27
2023-04-13T10:17:21.199Z,1.30
2023-04-13T10:19:56.064Z,1.30
2023-04-13T10:22:48.281Z,1.20
2023-04-13T10:25:32.779Z,1.17
2023-04-13T10:28:14.492Z,1.13
2023-04-13T10:30:50.969Z,1.03
2023-04-13T10:33:19.113Z,1.30
2023-04-13T10:35:56.829Z,1.10
2023-04-13T10:38:27.589Z,0.93
2023-04-13T10:40:55.932Z,1.30
2023-04-13T10:43:30.711Z,1.33
2023-04-13T10:46:11.032Z,1.20
2023-04-13T10:48:39.089Z,1.07
2023-04-13T10:51:07.138Z,1.20
2023-04-13T10:53:37.623Z,1.37
2023-04-13T10:56:15.818Z,1.13
2023-04-13T10:58:43.807Z,1.40
2023-04-13T11:01:12.125Z,1.60
2023-04-13T11:03:44.970Z,1.37
2023-04-13T11:06:21.826Z,1.30
2023-04-13T11:09:00.186Z,1.83
2023-04-13T11:11:29.344Z,1.47
2023-04-13T11:13:58.140Z,1.40
2023-04-13T11:16:26.400Z,1.40
2023-04-13T11:19:02.513Z,1.90
2023-04-13T11:21:31.875Z,0.90
2023-04-13T11:24:02.744Z,1.00
2023-04-13T11:26:35.001Z,2.10
2023-04-13T11:29:04.200Z,2.73
2023-04-13T11:31:39.940Z,1.80
2023-04-13T11:34:09.642Z,1.87
2023-04-13T11:36:39.138Z,1.80
2023-04-13T11:39:11.110Z,1.70
2023-04-13T11:41:42.524Z,1.50
2023-04-13T11:44:12.508Z,1.00
2023-04-13T11:46:40.694Z,1.70
2023-04-13T11:49:09.006Z,1.40
2023-04-13T11:51:37.640Z,1.33
2023-04-13T11:54:06.722Z,1.37
2023-04-13T11:56:36.106Z,1.00
2023-04-13T11:59:04.026Z,1.33
2023-04-13T12:01:34.429Z,1.13
2023-04-13T12:04:14.562Z,1.40
2023-04-13T12:06:46.058Z,1.37
2023-04-13T12:09:19.219Z,1.67
2023-04-13T12:12:15.312Z,1.10
2023-04-13T12:19:51.963Z,0.90
2023-04-13T12:22:23.899Z,1.10
2023-04-13T12:24:53.508Z,0.70
2023-04-13T12:27:24.672Z,0.80
2023-04-13T12:29:53.406Z,1.00
2023-04-13T12:32:21.472Z,1.40
2023-04-13T12:34:49.553Z,1.40
2023-04-13T12:37:17.623Z,1.60
2023-04-13T12:39:45.647Z,1.40
2023-04-13T12:42:13.914Z,1.30
2023-04-13T12:44:43.656Z,1.17
2023-04-13T12:47:11.998Z,1.17
2023-04-13T12:49:40.049Z,1.00
2023-04-13T12:52:08.307Z,1.37
2023-04-13T12:54:36.692Z,1.37
2023-04-13T12:57:04.785Z,1.60
2023-04-13T12:59:32.921Z,1.37
2023-04-13T13:02:02.313Z,1.60
2023-04-13T13:04:30.835Z,1.10
2023-04-13T13:06:59.055Z,1.70
2023-04-13T13:09:27.215Z,1.50
2023-04-13T13:11:56.131Z,1.23
2023-04-13T13:14:24.292Z,1.07
2023-04-13T13:16:53.107Z,1.40
2023-04-13T13:19:22.999Z,1.30
2023-04-13T13:21:51.016Z,1.20
2023-04-13T13:24:19.004Z,1.20
2023-04-13T13:29:23.885Z,1.60
2023-04-13T13:31:52.585Z,1.30
2023-04-13T13:34:22.100Z,1.20
2023-04-13T13:36:50.083Z,1.20
2023-04-13T13:39:21.118Z,1.50
2023-04-13T13:41:49.091Z,1.20
2023-04-13T13:44:17.303Z,1.47
2023-04-13T13:46:45.373Z,1.50
2023-04-13T13:49:13.303Z,1.07
2023-04-13T13:52:02.583Z,1.30
2023-04-13T13:54:34.487Z,1.33
2023-04-13T13:57:02.988Z,1.43
2023-04-13T13:59:30.908Z,1.33
2023-04-13T14:02:01.365Z,1.27
2023-04-13T14:04:29.430Z,1.10
2023-04-13T14:06:57.675Z,2.00
2023-04-13T14:09:35.245Z,2.00
2023-04-13T14:12:30.316Z,2.13
2023-04-13T14:15:20.791Z,1.93
2023-04-13T14:18:10.893Z,2.30
2023-04-13T14:21:06.030Z,1.80
2023-04-13T14:24:00.998Z,1.90
2023-04-13T14:26:48.975Z,1.30
2023-04-13T14:29:29.627Z,2.00
2023-04-13T14:32:28.693Z,1.80
2023-04-13T14:35:19.193Z,1.90
2023-04-13T14:38:00.729Z,1.40
2023-04-13T14:41:01.530Z,1.97
2023-04-13T14:43:34.192Z,2.50
2023-04-13T14:46:36.656Z,1.80
2023-04-13T14:49:22.437Z,2.53
2023-04-13T14:52:00.178Z,2.47
2023-04-13T14:54:42.559Z,2.90
2023-04-13T14:57:17.747Z,2.77
2023-04-13T15:00:24.309Z,2.67
2023-04-13T15:02:56.574Z,1.40
2023-04-13T15:05:30.506Z,1.50
2023-04-13T15:08:10.018Z,1.20
2023-04-13T15:11:02.074Z,1.43
2023-04-13T15:13:51.937Z,1.93
2023-04-13T15:16:35.055Z,1.77
2023-04-13T15:19:20.484Z,1.60
2023-04-13T15:22:07.770Z,1.80
2023-04-13T15:25:11.342Z,1.37
2023-04-13T15:27:55.989Z,1.37
2023-04-13T15:30:38.813Z,1.57
2023-04-13T15:33:29.580Z,1.50
2023-04-13T15:36:07.095Z,1.73
2023-04-13T15:39:12.347Z,1.63
2023-04-13T15:41:52.956Z,1.47
2023-04-13T15:44:43.548Z,1.37
2023-04-13T15:47:34.379Z,2.23
2023-04-13T15:50:35.309Z,1.40
2023-04-13T15:53:13.050Z,1.33
2023-04-13T15:55:56.273Z,2.00
2023-04-13T15:58:41.080Z,1.70
2023-04-13T16:01:39.207Z,1.77
2023-04-13T16:04:18.893Z,1.50
2023-04-13T16:07:23.876Z,1.80
2023-04-13T16:10:05.137Z,1.73
2023-04-13T16:12:49.506Z,1.80
2023-04-13T16:15:49.778Z,1.67
2023-04-13T16:18:38.854Z,1.80
2023-04-13T16:21:22.209Z,2.10
2023-04-13T16:24:15.853Z,1.73
2023-04-13T16:26:54.011Z,1.43
2023-04-13T16:29:21.992Z,1.90
2023-04-13T16:31:50.027Z,2.10
2023-04-13T16:34:26.192Z,1.93
2023-04-13T16:36:54.717Z,1.80
2023-04-13T16:39:24.064Z,1.57
2023-04-13T16:41:52.518Z,1.80
2023-04-13T16:44:20.596Z,1.50
2023-04-13T16:46:48.500Z,1.70
2023-04-13T16:49:16.931Z,1.40
2023-04-13T16:51:44.894Z,1.80
2023-04-13T16:54:14.101Z,1.60
2023-04-13T16:56:43.716Z,1.27
2023-04-13T16:59:11.950Z,1.30
2023-04-13T17:01:40.000Z,1.90
2023-04-13T17:04:08.869Z,2.10
2023-04-13T17:06:38.906Z,1.53
2023-04-13T17:09:09.978Z,1.57
2023-04-13T17:11:37.853Z,1.73
2023-04-13T17:14:09.675Z,1.33
2023-04-13T17:16:37.662Z,2.17
2023-04-13T17:19:09.206Z,1.40
2023-04-13T17:21:38.045Z,1.60
2023-04-13T17:24:06.915Z,1.90
2023-04-13T17:26:34.930Z,1.70
2023-04-13T17:29:03.487Z,1.87
2023-04-13T17:31:32.873Z,1.20
2023-04-13T17:34:01.105Z,1.40
2023-04-13T17:36:28.916Z,1.30
2023-04-13T17:38:58.848Z,1.70
2023-04-13T17:41:27.184Z,1.20
2023-04-13T17:43:55.165Z,1.60
2023-04-13T17:46:23.072Z,1.40
2023-04-13T17:48:52.284Z,1.30
2023-04-13T17:51:20.332Z,1.40
2023-04-13T17:53:48.501Z,1.23
2023-04-13T17:56:17.071Z,1.37
2023-04-13T17:58:45.458Z,1.60
2023-04-13T18:01:13.414Z,1.70
2023-04-13T18:03:41.613Z,2.87
2023-04-13T18:06:11.236Z,2.10
2023-04-13T18:08:39.154Z,2.23
2023-04-13T18:11:07.202Z,2.30
2023-04-13T18:13:35.326Z,3.23
2023-04-13T18:16:04.337Z,2.70
2023-04-13T18:18:32.338Z,2.83
2023-04-13T18:21:02.177Z,2.70
2023-04-13T18:23:31.528Z,2.17
2023-04-13T18:25:59.760Z,2.33
2023-04-13T18:28:29.391Z,2.07
2023-04-13T18:31:00.296Z,2.60
2023-04-13T18:33:28.719Z,2.57
2023-04-13T18:35:57.402Z,2.10
2023-04-13T18:38:25.834Z,2.13
2023-04-13T18:40:55.320Z,2.17
2023-04-13T18:43:23.613Z,2.57
2023-04-13T18:45:51.586Z,2.53
2023-04-13T18:48:19.766Z,2.23
2023-04-13T18:50:48.409Z,2.23
2023-04-13T18:53:16.565Z,2.80
2023-04-13T18:55:50.001Z,2.57
2023-04-13T18:58:22.623Z,2.40
2023-04-13T19:00:50.688Z,2.07
2023-04-13T19:03:18.936Z,2.13
2023-04-13T19:05:47.485Z,2.20
2023-04-13T19:08:16.863Z,2.03
2023-04-13T19:10:45.265Z,1.90
2023-04-13T19:13:15.036Z,2.40
2023-04-13T19:15:46.868Z,2.57
2023-04-13T19:18:14.705Z,3.03
2023-04-13T19:20:42.592Z,3.37
2023-04-13T19:23:10.442Z,3.20
2023-04-13T19:25:39.355Z,3.00
2023-04-13T19:28:07.874Z,2.73
2023-04-13T19:30:36.248Z,3.63
2023-04-13T19:33:08.312Z,3.17
2023-04-13T19:35:36.727Z,3.30
2023-04-13T19:38:08.476Z,3.00
2023-04-13T19:40:37.534Z,3.30
2023-04-13T19:43:05.834Z,3.13
2023-04-13T19:45:34.033Z,3.00
2023-04-13T19:48:02.192Z,2.93
2023-04-13T19:50:32.209Z,3.03
2023-04-13T19:53:00.200Z,3.30
2023-04-13T19:55:28.528Z,2.83
2023-04-13T19:57:56.793Z,2.80
2023-04-13T20:00:26.901Z,2.63
2023-04-13T20:02:59.380Z,2.97
2023-04-13T20:05:27.593Z,2.50
2023-04-13T20:07:56.943Z,2.27
2023-04-13T20:10:25.037Z,2.20
2023-04-13T20:12:53.114Z,2.40
2023-04-13T20:15:24.225Z,2.33
2023-04-13T20:17:52.890Z,2.47
2023-04-13T20:20:23.740Z,2.20
2023-04-13T20:22:51.941Z,2.50
2023-04-13T20:25:21.240Z,2.33
2023-04-13T20:27:49.090Z,1.70
2023-04-13T20:30:17.083Z,1.90
2023-04-13T20:32:45.097Z,1.63
2023-04-13T20:35:16.092Z,1.43
2023-04-13T20:37:43.994Z,2.30
2023-04-13T20:40:12.571Z,1.73
2023-04-13T20:42:43.071Z,1.90
2023-04-13T20:45:15.133Z,2.30
2023-04-13T20:47:43.275Z,1.97
2023-04-13T20:50:12.938Z,2.40
2023-04-13T20:52:41.747Z,2.43
2023-04-13T20:55:11.628Z,2.53
2023-04-13T20:57:42.146Z,2.27
2023-04-13T21:00:15.442Z,2.07
2023-04-13T21:02:44.485Z,1.97
2023-04-13T21:05:12.798Z,2.00
2023-04-13T21:07:41.819Z,1.63
2023-04-13T21:10:11.091Z,1.80
2023-04-13T21:12:39.120Z,1.77
2023-04-13T21:15:09.981Z,2.53
2023-04-13T21:17:38.172Z,1.43
2023-04-13T21:20:09.028Z,1.73
2023-04-13T21:22:37.149Z,1.60
2023-04-13T21:25:05.917Z,1.77
2023-04-13T21:27:33.828Z,1.83
2023-04-13T21:30:02.263Z,1.47
2023-04-13T21:32:31.728Z,1.60
2023-04-13T21:35:00.510Z,1.40
2023-04-13T21:37:29.496Z,1.30
2023-04-13T21:39:57.823Z,1.67
2023-04-13T21:42:25.776Z,1.17
2023-04-13T21:44:55.318Z,1.67
2023-04-13T21:47:23.399Z,1.50
2023-04-13T21:49:52.743Z,1.30
2023-04-13T21:52:20.716Z,1.60
2023-04-13T21:54:50.372Z,2.37
2023-04-13T21:57:21.995Z,2.40
2023-04-13T21:59:54.163Z,2.07
2023-04-13T22:02:25.237Z,1.90
2023-04-13T22:04:54.698Z,2.20
2023-04-13T22:07:35.221Z,1.97
2023-04-13T22:10:10.607Z,1.90
2023-04-13T22:12:38.579Z,1.87
2023-04-13T22:15:07.684Z,1.90
2023-04-13T22:17:36.272Z,2.33
2023-04-13T22:20:06.387Z,2.40
2023-04-13T22:22:34.390Z,2.13
2023-04-13T22:25:02.444Z,1.80
2023-04-13T22:27:30.705Z,2.30
2023-04-13T22:29:58.667Z,2.10
2023-04-13T22:32:28.374Z,1.90
2023-04-13T22:34:56.412Z,2.13
2023-04-13T22:37:31.619Z,2.13
2023-04-13T22:40:00.921Z,2.60
2023-04-13T22:42:28.952Z,2.40
2023-04-13T22:44:57.660Z,2.70
2023-04-13T22:47:25.725Z,2.40
2023-04-13T22:49:53.693Z,2.60
2023-04-13T22:52:21.838Z,3.27
2023-04-13T22:54:52.178Z,2.63
2023-04-13T22:57:20.292Z,2.30
2023-04-13T22:59:48.160Z,2.47
2023-04-13T23:02:16.126Z,2.30
2023-04-13T23:04:44.136Z,4.20
2023-04-13T23:07:12.141Z,11.03
2023-04-13T23:09:42.632Z,7.07
2023-04-13T23:12:11.915Z,4.10
2023-04-13T23:14:40.427Z,2.93
2023-04-13T23:17:08.397Z,3.43
2023-04-13T23:19:36.270Z,2.80
2023-04-13T23:22:04.177Z,2.83
2023-04-13T23:24:32.144Z,2.90
2023-04-13T23:27:00.050Z,2.87
2023-04-13T23:29:29.395Z,3.33
2023-04-13T23:31:57.690Z,3.33
2023-04-13T23:34:25.698Z,3.20
2023-04-13T23:36:53.599Z,3.80
2023-04-13T23:39:23.000Z,3.70
2023-04-13T23:41:50.903Z,5.10
2023-04-13T23:44:18.761Z,4.23
2023-04-13T23:46:48.218Z,4.77
2023-04-13T23:49:16.244Z,4.63
2023-04-13T23:51:44.512Z,4.80
2023-04-13T23:54:12.630Z,5.50
2023-04-13T23:56:40.617Z,5.77
2023-04-13T23:59:08.486Z,4.13
